Time;durP1;ratioP1;P1;durP2;ratioP2;P2;SDS_P1;SDS_P2;PMS_P1;PMS_P2;Temp;Humidity;BMP_temperature;BMP_pressure;BME280_temperature;BME280_humidity;BME280_pressure;Samples;Min_cycle;Max_cycle;Signal;HPM_P1;HPM_P2
2021/06/30 00:02:07;;;;;;;;;13.50;11.75;;;;;22.71;52.59;100579.47;5038493;28;45704;-74
2021/06/30 00:04:32;;;;;;;;;13.25;13.25;;;;;22.68;52.21;100576.94;5037949;28;52643;-75
2021/06/30 00:06:57;;;;;;;;;10.00;10.00;;;;;22.72;51.83;100586.50;5021777;28;45739;-75
2021/06/30 00:09:23;;;;;;;;;12.00;9.00;;;;;22.73;52.15;100588.25;5021577;28;45357;-75
2021/06/30 00:11:48;;;;;;;;;12.25;11.75;;;;;22.71;52.03;100584.78;5005011;28;45586;-75
2021/06/30 00:14:14;;;;;;;;;12.25;11.50;;;;;22.70;52.54;100577.75;5022364;28;45323;-75
2021/06/30 00:16:40;;;;;;;;;13.25;11.00;;;;;22.68;52.54;100574.28;5021382;28;45217;-75
2021/06/30 00:19:07;;;;;;;;;9.50;9.50;;;;;22.72;52.22;100581.19;5021554;28;45163;-74
2021/06/30 00:21:32;;;;;;;;;12.75;11.25;;;;;22.73;52.02;100588.25;5021240;28;45254;-75
2021/06/30 00:23:58;;;;;;;;;12.25;10.25;;;;;22.73;52.13;100589.09;5004440;28;55755;-75
2021/06/30 00:26:23;;;;;;;;;8.75;7.75;;;;;22.70;52.34;100569.75;5022562;28;45219;-75
2021/06/30 00:28:48;;;;;;;;;10.75;8.00;;;;;22.71;52.51;100569.69;5021705;28;45557;-75
2021/06/30 00:31:15;;;;;;;;;9.00;8.75;;;;;22.72;52.15;100565.22;5021317;28;45226;-75
2021/06/30 00:33:40;;;;;;;;;10.75;9.75;;;;;22.71;52.21;100566.16;5021335;28;45387;-74
2021/06/30 00:36:06;;;;;;;;;9.25;7.75;;;;;22.70;52.08;100561.78;5021784;28;45281;-74
2021/06/30 00:38:31;;;;;;;;;8.50;8.00;;;;;22.73;51.88;100572.28;5021210;28;45352;-74
2021/06/30 00:40:57;;;;;;;;;8.50;8.50;;;;;22.76;51.74;100574.78;5021179;28;45391;-75
2021/06/30 00:43:22;;;;;;;;;10.00;8.75;;;;;22.70;52.10;100564.44;5020521;28;48035;-75
2021/06/30 00:45:48;;;;;;;;;8.00;8.00;;;;;22.65;52.39;100563.75;5017342;28;58475;-75
2021/06/30 00:48:14;;;;;;;;;10.25;6.00;;;;;22.68;52.33;100575.16;5002561;28;45309;-75
2021/06/30 00:50:39;;;;;;;;;8.25;7.50;;;;;22.68;52.22;100576.94;5003123;28;64576;-74
2021/06/30 00:53:04;;;;;;;;;8.50;7.50;;;;;22.65;52.36;100572.59;5004051;28;57043;-75
2021/06/30 00:55:30;;;;;;;;;9.00;8.25;;;;;22.65;52.57;100574.41;5020351;28;56826;-75
2021/06/30 00:57:55;;;;;;;;;8.75;8.75;;;;;22.71;52.19;100574.16;5020016;28;63619;-75
2021/06/30 01:00:21;;;;;;;;;7.50;7.00;;;;;22.71;52.26;100572.34;4998284;28;45436;-75
2021/06/30 01:02:46;;;;;;;;;7.00;7.00;;;;;22.69;52.62;100576.00;4984434;28;48184;-75
2021/06/30 01:05:12;;;;;;;;;6.50;6.50;;;;;22.72;52.17;100578.53;5017377;28;45162;-75
2021/06/30 01:07:45;;;;;;;;;9.00;8.00;;;;;22.62;52.31;100563.91;4996894;28;45321;-75
2021/06/30 01:10:10;;;;;;;;;9.75;7.75;;;;;22.66;52.34;100571.66;5001084;28;45269;-75
2021/06/30 01:12:36;;;;;;;;;6.50;6.50;;;;;22.69;52.46;100566.25;5001640;28;45358;-75
2021/06/30 01:15:06;;;;;;;;;8.25;7.25;;;;;22.69;52.11;100571.56;5000784;28;45487;-74
2021/06/30 01:17:31;;;;;;;;;7.25;7.25;;;;;22.71;52.74;100579.47;5000726;28;45533;-75
2021/06/30 01:19:57;;;;;;;;;7.00;7.00;;;;;22.70;52.28;100569.75;5000906;28;45372;-75
2021/06/30 01:22:23;;;;;;;;;7.75;7.25;;;;;22.66;52.55;100576.13;5000491;28;48235;-75
2021/06/30 01:24:50;;;;;;;;;6.00;6.00;;;;;22.65;52.68;100574.41;5001939;28;45305;-75
2021/06/30 01:27:18;;;;;;;;;7.75;6.75;;;;;22.64;52.65;100568.22;5017278;28;45375;-74
2021/06/30 01:29:43;;;;;;;;;6.25;6.25;;;;;22.62;52.69;100575.41;5000416;28;45638;-75
2021/06/30 01:32:09;;;;;;;;;7.75;7.50;;;;;22.61;52.85;100572.81;5001704;28;46045;-74
2021/06/30 01:34:34;;;;;;;;;11.00;7.25;;;;;22.53;53.02;100563.38;5008071;28;45282;-74
2021/06/30 01:36:59;;;;;;;;;8.00;8.00;;;;;22.56;52.63;100568.53;5007742;28;45393;-74
2021/06/30 01:39:25;;;;;;;;;10.00;8.75;;;;;22.53;52.55;100566.03;4991059;28;45807;-75
2021/06/30 01:41:50;;;;;;;;;8.75;6.75;;;;;22.55;53.20;100564.16;5021312;28;45451;-75
2021/06/30 01:44:16;;;;;;;;;8.00;8.00;;;;;22.53;52.73;100565.16;5019613;28;53725;-74
2021/06/30 01:46:42;;;;;;;;;8.50;6.50;;;;;22.50;53.25;100566.16;5021116;28;45335;-75
2021/06/30 01:49:07;;;;;;;;;7.75;6.25;;;;;22.50;52.96;100565.28;5019406;28;45356;-74
2021/06/30 01:51:33;;;;;;;;;6.50;6.50;;;;;22.53;53.30;100570.50;5035336;28;57435;-75
2021/06/30 01:53:59;;;;;;;;;6.75;6.50;;;;;22.49;53.19;100567.06;5001685;28;45427;-75
2021/06/30 01:56:25;;;;;;;;;7.50;7.50;;;;;22.53;53.13;100576.66;5016690;28;45286;-75
2021/06/30 01:59:07;;;;;;;;;9.00;7.50;;;;;22.52;53.24;100577.59;4999718;28;45488;-75
2021/06/30 02:01:33;;;;;;;;;7.75;7.25;;;;;22.51;53.18;100573.22;5003264;28;46517;-75
2021/06/30 02:03:58;;;;;;;;;7.00;7.00;;;;;22.50;53.03;100582.13;5000054;28;45273;-75
2021/06/30 02:06:24;;;;;;;;;5.50;5.50;;;;;22.40;52.98;100563.94;4983660;28;45473;-74
2021/06/30 02:08:51;;;;;;;;;6.25;6.25;;;;;22.48;53.14;100578.66;4999854;28;45566;-75
2021/06/30 02:11:19;;;;;;;;;8.00;6.50;;;;;22.44;53.05;100579.72;5001046;28;45284;-75
2021/06/30 02:13:45;;;;;;;;;8.50;7.00;;;;;22.45;53.71;100584.09;5000546;28;53365;-74
2021/06/30 02:16:10;;;;;;;;;7.00;7.00;;;;;22.42;53.59;100572.75;4999427;28;56289;-75
2021/06/30 02:18:36;;;;;;;;;8.50;8.25;;;;;22.42;53.40;100578.06;4983406;28;45513;-74
2021/06/30 02:21:01;;;;;;;;;9.50;8.00;;;;;22.36;53.31;100571.19;5000555;28;56791;-74
2021/06/30 02:23:26;;;;;;;;;6.75;5.25;;;;;22.40;53.35;100583.41;4983308;28;45481;-74
2021/06/30 02:25:52;;;;;;;;;8.00;8.00;;;;;22.41;53.48;100584.28;4999263;28;50009;-74
2021/06/30 02:28:17;;;;;;;;;8.25;7.00;;;;;22.40;53.35;100586.09;4981446;28;45267;-74
2021/06/30 02:30:43;;;;;;;;;10.00;9.25;;;;;22.40;53.11;100587.88;4998957;28;46987;-74
2021/06/30 02:33:08;;;;;;;;;7.00;6.00;;;;;22.32;53.31;100572.25;5019499;28;45493;-74
2021/06/30 02:35:34;;;;;;;;;8.25;6.75;;;;;22.36;53.79;100581.84;5001730;28;47551;-74
2021/06/30 02:37:59;;;;;;;;;10.25;10.25;;;;;22.38;53.75;100593.25;5011593;28;45639;-74
2021/06/30 02:40:25;;;;;;;;;8.00;7.75;;;;;22.40;53.37;100583.41;5000642;28;45896;-74
2021/06/30 02:42:50;;;;;;;;;8.00;8.00;;;;;22.41;53.83;100590.47;5009544;28;45805;-74
2021/06/30 02:45:16;;;;;;;;;7.00;7.00;;;;;22.38;53.37;100592.41;5019355;28;45824;-74
2021/06/30 02:47:42;;;;;;;;;9.75;6.25;;;;;22.37;53.37;100583.56;5020577;28;45214;-74
2021/06/30 02:50:09;;;;;;;;;7.00;7.00;;;;;22.37;53.36;100583.56;5020389;28;45352;-74
2021/06/30 02:52:34;;;;;;;;;8.00;7.50;;;;;22.38;53.65;100589.75;5011096;28;45290;-74
2021/06/30 02:55:00;;;;;;;;;7.00;7.00;;;;;22.39;53.42;100595.00;5015962;28;45621;-74
2021/06/30 02:57:25;;;;;;;;;8.00;6.00;;;;;22.32;53.24;100585.53;5000199;28;45331;-74
2021/06/30 02:59:51;;;;;;;;;10.00;8.25;;;;;22.34;53.15;100585.50;5001421;28;47045;-74
2021/06/30 03:02:16;;;;;;;;;7.00;6.00;;;;;22.37;53.23;100594.19;4999277;28;46020;-74
2021/06/30 03:04:41;;;;;;;;;9.25;8.25;;;;;22.40;53.18;100596.72;5000866;28;45391;-74
2021/06/30 03:07:07;;;;;;;;;9.00;9.00;;;;;22.43;52.89;100598.41;5000418;28;53967;-74
2021/06/30 03:09:32;;;;;;;;;10.00;9.00;;;;;22.42;53.36;100596.69;5015930;28;45342;-74
2021/06/30 03:11:58;;;;;;;;;10.75;7.75;;;;;22.41;53.27;100590.47;5000386;28;45350;-74
2021/06/30 03:14:23;;;;;;;;;8.25;7.75;;;;;22.34;53.46;100597.00;5000134;28;45266;-74
2021/06/30 03:16:49;;;;;;;;;8.75;8.75;;;;;22.36;53.02;100588.94;5000092;28;45399;-74
2021/06/30 03:19:14;;;;;;;;;8.00;8.00;;;;;22.36;53.37;100588.94;5000068;28;45377;-74
2021/06/30 03:21:40;;;;;;;;;10.50;9.25;;;;;22.40;53.23;100603.84;4991749;28;45267;-74
2021/06/30 03:24:05;;;;;;;;;9.50;8.75;;;;;22.39;53.31;100600.31;5005364;28;45363;-74
2021/06/30 03:26:31;;;;;;;;;7.00;7.00;;;;;22.33;52.94;100591.72;5019933;28;45621;-74
2021/06/30 03:29:00;;;;;;;;;9.75;7.75;;;;;22.38;52.83;100598.59;5006001;28;45241;-74
2021/06/30 03:31:25;;;;;;;;;8.00;8.00;;;;;22.26;52.62;100586.69;5009165;28;45405;-74
2021/06/30 03:33:51;;;;;;;;;10.75;8.50;;;;;22.36;52.62;100603.09;5000145;28;45944;-74
2021/06/30 03:36:16;;;;;;;;;9.00;9.00;;;;;22.32;52.73;100600.63;5008901;28;45517;-74
2021/06/30 03:38:41;;;;;;;;;11.25;8.50;;;;;22.33;52.86;100603.25;5035077;28;46088;-74
2021/06/30 03:41:07;;;;;;;;;11.75;8.50;;;;;22.32;52.63;100609.47;5001486;28;56204;-74
2021/06/30 03:43:32;;;;;;;;;8.00;7.75;;;;;22.34;53.27;100612.09;5019360;28;45328;-74
2021/06/30 03:45:58;;;;;;;;;10.00;9.25;;;;;22.37;52.69;100607.50;5018393;28;45451;-74
2021/06/30 03:48:23;;;;;;;;;11.00;10.00;;;;;22.34;52.54;100604.97;5004768;28;45412;-74
2021/06/30 03:50:48;;;;;;;;;11.00;9.00;;;;;22.35;52.56;100608.50;5002211;28;57944;-74
2021/06/30 03:53:14;;;;;;;;;9.25;9.00;;;;;22.28;52.58;100602.56;5004400;28;61491;-74
2021/06/30 03:55:40;;;;;;;;;10.50;9.00;;;;;22.29;52.62;100609.59;4999884;28;45308;-74
2021/06/30 03:58:05;;;;;;;;;9.25;8.25;;;;;22.28;52.73;100618.50;5014607;28;45540;-73
2021/06/30 04:00:30;;;;;;;;;9.50;8.50;;;;;22.26;52.99;100625.69;5001765;28;45253;-74
2021/06/30 04:02:56;;;;;;;;;12.75;11.25;;;;;22.23;53.12;100613.38;4981389;28;60139;-74
2021/06/30 04:05:22;;;;;;;;;13.00;10.00;;;;;22.27;52.70;100620.31;4981746;28;52303;-74
2021/06/30 04:07:47;;;;;;;;;7.25;7.25;;;;;22.20;53.19;100599.34;4998258;28;47776;-74
2021/06/30 04:10:13;;;;;;;;;8.25;7.00;;;;;22.18;52.90;100602.06;4998246;28;45228;-74
2021/06/30 04:12:41;;;;;;;;;9.00;8.00;;;;;22.18;52.86;100610.06;4984935;28;45295;-74
2021/06/30 04:15:06;;;;;;;;;12.25;10.25;;;;;22.22;52.48;100621.41;5001870;28;45424;-74
2021/06/30 04:17:32;;;;;;;;;9.00;9.00;;;;;22.17;53.21;100610.97;5001502;28;47365;-74
2021/06/30 04:19:58;;;;;;;;;9.00;7.50;;;;;22.22;52.89;100614.31;5001791;28;45542;-74
2021/06/30 04:22:23;;;;;;;;;8.50;8.50;;;;;22.21;52.83;100617.03;5001891;28;45454;-73
2021/06/30 04:24:52;;;;;;;;;8.00;8.00;;;;;22.21;53.03;100619.69;5002914;28;45562;-73
2021/06/30 04:27:17;;;;;;;;;9.25;9.25;;;;;22.19;52.99;100618.88;5001204;28;45395;-74
2021/06/30 04:29:42;;;;;;;;;10.00;9.25;;;;;22.15;52.79;100610.19;5001579;28;60738;-74
2021/06/30 04:32:08;;;;;;;;;9.50;8.00;;;;;22.15;52.53;100620.81;5002754;28;45294;-73
2021/06/30 04:34:34;;;;;;;;;9.75;9.25;;;;;22.19;52.92;100625.06;5002871;28;45214;-74
2021/06/30 04:36:59;;;;;;;;;10.25;10.25;;;;;22.18;52.87;100619.81;5017839;28;45358;-73
2021/06/30 04:39:27;;;;;;;;;9.00;8.75;;;;;22.15;52.67;100622.59;5000838;28;54165;-74
2021/06/30 04:41:52;;;;;;;;;10.25;8.00;;;;;22.19;53.05;100624.22;5003815;28;45350;-73
2021/06/30 04:44:18;;;;;;;;;9.75;7.00;;;;;22.14;52.92;100615.53;5014153;28;47607;-73
2021/06/30 04:46:43;;;;;;;;;9.00;6.75;;;;;22.13;53.03;100617.34;5001037;28;47302;-73
2021/06/30 04:49:08;;;;;;;;;9.00;9.00;;;;;22.20;52.77;100624.13;5002237;28;51056;-73
2021/06/30 04:51:34;;;;;;;;;9.75;7.25;;;;;22.19;53.26;100625.06;5025935;28;45347;-74
2021/06/30 04:54:02;;;;;;;;;10.50;8.75;;;;;22.16;52.84;100622.53;5002460;28;45377;-73
2021/06/30 04:56:27;;;;;;;;;7.25;7.25;;;;;22.20;53.03;100623.28;5002300;28;45197;-73
2021/06/30 04:58:54;;;;;;;;;9.00;8.00;;;;;22.23;53.04;100625.78;5000865;28;45253;-73
2021/06/30 05:01:19;;;;;;;;;6.50;6.00;;;;;22.22;53.17;100626.72;5001948;28;45335;-74
2021/06/30 05:03:45;;;;;;;;;9.00;8.75;;;;;22.28;53.10;100629.16;5020923;28;45303;-73
2021/06/30 05:06:10;;;;;;;;;8.75;6.75;;;;;22.27;52.64;100622.09;5003577;28;59471;-74
2021/06/30 05:08:36;;;;;;;;;9.00;8.25;;;;;22.31;52.71;100637.00;5004049;28;45452;-73
2021/06/30 05:11:01;;;;;;;;;8.25;8.25;;;;;22.31;52.84;100634.31;5020073;28;55133;-73
2021/06/30 05:13:42;;;;;;;;;5.00;5.00;;;;;22.27;53.72;100627.41;5020063;28;54168;-75
2021/06/30 05:16:07;;;;;;;;;8.50;8.25;;;;;22.26;53.33;100634.53;5003857;28;46885;-78
2021/06/30 05:18:32;;;;;;;;;10.75;7.75;;;;;22.29;53.68;100636.19;5022053;28;45249;-81
2021/06/30 05:20:58;;;;;;;;;8.00;7.00;;;;;22.20;53.50;100625.94;5003979;28;45461;-78
2021/06/30 05:23:29;;;;;;;;;8.25;7.50;;;;;22.31;53.08;100639.66;5020232;28;45503;-74
2021/06/30 05:25:54;;;;;;;;;10.25;7.25;;;;;22.34;53.47;100641.34;5016763;28;46462;-75
2021/06/30 05:28:20;;;;;;;;;8.25;7.00;;;;;22.37;53.46;100643.84;5001499;28;45365;-72
2021/06/30 05:30:45;;;;;;;;;9.75;8.50;;;;;22.30;53.08;100632.59;5001684;28;45249;-74
2021/06/30 05:33:14;;;;;;;;;9.25;8.50;;;;;22.38;54.34;100646.44;5001776;28;45547;-73
2021/06/30 05:35:39;;;;;;;;;8.00;8.00;;;;;22.36;53.13;100637.69;5001690;28;46372;-72
2021/06/30 05:38:04;;;;;;;;;8.50;7.00;;;;;22.38;53.28;100642.94;5001525;28;51129;-73
2021/06/30 05:40:30;;;;;;;;;8.25;7.00;;;;;22.35;53.63;100651.03;5000424;28;45324;-73
2021/06/30 05:42:55;;;;;;;;;10.00;8.00;;;;;22.34;53.02;100647.53;5011262;28;45393;-72
2021/06/30 05:45:22;;;;;;;;;8.00;7.50;;;;;22.35;54.85;100646.59;4988544;28;46392;-73
2021/06/30 05:47:47;;;;;;;;;9.75;9.50;;;;;22.44;54.56;100650.66;5016809;28;45354;-70
2021/06/30 05:50:13;;;;;;;;;7.25;7.25;;;;;22.45;54.85;100647.06;5000249;28;45376;-69
2021/06/30 05:52:41;;;;;;;;;10.00;8.25;;;;;22.52;54.39;100659.19;5025217;28;45405;-71
2021/06/30 06:02:45;;;;;;;;;8.00;8.00;;;;;22.51;53.76;100661.00;4917256;28;45565;-73
2021/06/30 06:08:57;;;;;;;;;7.25;7.00;;;;;22.32;54.30;100645.81;4949229;28;45503;-72
2021/06/30 06:11:22;;;;;;;;;10.50;8.00;;;;;22.43;54.74;100665.75;4945126;28;45310;-72
2021/06/30 06:13:48;;;;;;;;;9.50;8.00;;;;;22.49;53.86;100670.81;5008901;28;45330;-71
2021/06/30 06:16:14;;;;;;;;;7.25;7.25;;;;;22.43;54.22;100665.75;4999796;28;46707;-69
2021/06/30 06:18:43;;;;;;;;;11.50;7.75;;;;;22.41;54.14;100674.69;5016387;28;46357;-71
2021/06/30 06:21:09;;;;;;;;;8.75;7.00;;;;;22.37;54.25;100666.00;5001625;28;45430;-70
2021/06/30 06:23:34;;;;;;;;;9.50;7.25;;;;;22.35;54.17;100673.19;4999987;28;45539;-72
2021/06/30 06:26:07;;;;;;;;;6.25;6.25;;;;;22.36;54.51;100684.69;5000781;28;45254;-73
2021/06/30 06:28:34;;;;;;;;;10.50;9.00;;;;;22.34;54.46;100676.78;5000406;28;46602;-72
2021/06/30 06:31:00;;;;;;;;;6.75;6.75;;;;;22.30;53.95;100675.13;5015992;28;45414;-72
2021/06/30 06:33:26;;;;;;;;;13.25;12.50;;;;;22.29;54.48;100678.72;5000498;28;45249;-73
2021/06/30 06:35:51;;;;;;;;;9.00;7.25;;;;;22.29;54.56;100686.72;4999363;28;45479;-73
2021/06/30 06:38:16;;;;;;;;;7.25;7.00;;;;;22.24;54.38;100684.25;5000568;28;58145;-72
2021/06/30 06:40:42;;;;;;;;;6.50;6.50;;;;;22.23;54.16;100692.25;5000541;28;45415;-71
2021/06/30 06:43:08;;;;;;;;;9.25;7.75;;;;;22.17;54.71;100680.09;5010653;28;45518;-72
2021/06/30 06:45:34;;;;;;;;;10.00;9.00;;;;;22.22;53.99;100691.41;5002217;28;45431;-73
2021/06/30 06:47:59;;;;;;;;;7.50;7.00;;;;;22.21;53.96;100697.66;5000548;28;45277;-73
2021/06/30 06:50:25;;;;;;;;;6.75;6.75;;;;;22.17;53.81;100690.72;4999119;28;45498;-73
2021/06/30 06:52:50;;;;;;;;;10.00;6.50;;;;;22.15;54.25;100695.25;5007353;28;45429;-73
2021/06/30 06:55:19;;;;;;;;;9.00;8.00;;;;;22.17;54.50;100701.38;4998874;28;45309;-72
2021/06/30 06:57:45;;;;;;;;;9.50;8.00;;;;;22.19;54.11;100699.50;4982302;28;47142;-72
2021/06/30 07:00:19;;;;;;;;;6.75;6.75;;;;;22.20;54.08;100701.22;5007023;28;46039;-72
2021/06/30 07:02:45;;;;;;;;;14.25;11.25;;;;;22.17;53.89;100697.84;5002581;28;45336;-71
2021/06/30 07:05:10;;;;;;;;;9.00;7.25;;;;;22.17;53.75;100695.19;5002091;28;45261;-73
2021/06/30 07:07:40;;;;;;;;;9.50;7.75;;;;;22.14;53.77;100697.94;5018634;28;48073;-74
2021/06/30 07:10:06;;;;;;;;;7.00;6.50;;;;;22.15;54.19;100697.00;5018681;28;45293;-73
2021/06/30 07:12:34;;;;;;;;;10.00;9.75;;;;;22.12;54.05;100705.13;5002083;28;45444;-73
2021/06/30 07:15:01;;;;;;;;;11.75;8.00;;;;;22.11;54.14;100693.63;5018735;28;45531;-73
2021/06/30 07:17:28;;;;;;;;;9.00;8.00;;;;;22.15;54.46;100700.56;5018027;28;48083;-73
2021/06/30 07:19:53;;;;;;;;;7.75;7.25;;;;;22.12;54.25;100700.66;5015031;28;45361;-72
2021/06/30 07:22:18;;;;;;;;;8.00;7.25;;;;;;;;4999377;28;55250;-72
2021/06/30 07:24:43;;;;;;;;;7.50;7.50;;;;;22.06;54.15;100702.66;5015655;28;45230;-72
2021/06/30 07:27:09;;;;;;;;;10.00;8.00;;;;;22.05;54.41;100708.91;5018903;28;47689;-73
2021/06/30 07:29:34;;;;;;;;;10.25;8.50;;;;;22.08;54.18;100708.84;5001408;28;46617;-73
2021/06/30 07:32:00;;;;;;;;;8.25;7.00;;;;;22.07;53.96;100709.72;5018595;28;45404;-73
2021/06/30 07:34:25;;;;;;;;;7.50;7.50;;;;;22.05;54.16;100708.91;5018123;28;45426;-74
2021/06/30 07:36:51;;;;;;;;;7.50;6.25;;;;;22.02;54.38;100718.72;5018423;28;45915;-73
2021/06/30 07:39:16;;;;;;;;;9.00;8.00;;;;;22.00;54.17;100715.28;5019442;28;45340;-72
2021/06/30 07:41:42;;;;;;;;;9.25;8.25;;;;;22.03;54.23;100719.59;5035018;28;45398;-72
2021/06/30 07:44:08;;;;;;;;;7.75;7.75;;;;;22.04;54.43;100721.31;5012814;28;45479;-73
2021/06/30 07:46:36;;;;;;;;;10.00;7.00;;;;;22.01;54.25;100724.97;5000573;28;45470;-73
2021/06/30 07:49:01;;;;;;;;;7.00;7.00;;;;;22.03;54.04;100724.91;5001670;28;45247;-72
2021/06/30 07:51:29;;;;;;;;;7.50;7.50;;;;;22.05;54.31;100725.72;5010022;28;45656;-73
2021/06/30 07:53:55;;;;;;;;;8.00;8.00;;;;;22.03;54.27;100719.59;5021318;28;45566;-73
2021/06/30 07:56:33;;;;;;;;;10.25;7.50;;;;;22.06;54.26;100731.91;5008214;28;46909;-72
2021/06/30 07:59:12;;;;;;;;;7.25;6.75;;;;;21.96;54.62;100712.78;5001281;28;45722;-73
2021/06/30 08:01:38;;;;;;;;;8.25;8.25;;;;;22.03;54.27;100724.91;5006408;28;45233;-73
2021/06/30 08:04:05;;;;;;;;;8.00;7.75;;;;;22.05;53.96;100716.88;4995675;28;45526;-73
2021/06/30 08:06:36;;;;;;;;;10.50;8.00;;;;;22.04;53.77;100723.97;5022719;28;45468;-74
2021/06/30 08:09:05;;;;;;;;;7.75;7.25;;;;;22.05;53.94;100722.19;5005519;28;45316;-74
2021/06/30 08:11:35;;;;;;;;;8.00;7.25;;;;;22.04;53.86;100717.81;5021913;28;45391;-74
2021/06/30 08:14:01;;;;;;;;;10.00;7.50;;;;;22.08;53.67;100728.31;5005451;28;45362;-73
2021/06/30 08:16:26;;;;;;;;;9.75;9.00;;;;;22.09;53.90;100723.84;5004678;28;47038;-73
2021/06/30 08:18:54;;;;;;;;;8.25;7.25;;;;;22.03;53.76;100711.63;5002822;28;45664;-73
2021/06/30 08:21:23;;;;;;;;;10.75;8.00;;;;;22.11;53.75;100730.84;4999402;28;45369;-73
2021/06/30 08:23:49;;;;;;;;;9.00;7.75;;;;;22.07;53.95;100715.06;5015153;28;45387;-73
2021/06/30 08:26:14;;;;;;;;;7.75;6.50;;;;;22.10;53.70;100730.91;5037527;28;45647;-73
2021/06/30 08:28:40;;;;;;;;;9.25;8.75;;;;;22.08;53.36;100725.66;5022249;28;45426;-73
2021/06/30 08:31:05;;;;;;;;;10.00;8.25;;;;;22.11;53.88;100722.88;5022155;28;45510;-73
2021/06/30 08:33:31;;;;;;;;;8.75;7.50;;;;;22.11;53.79;100729.97;5021335;28;45408;-73
2021/06/30 08:35:56;;;;;;;;;10.00;8.00;;;;;22.11;53.85;100728.19;5004119;28;45524;-74
2021/06/30 08:38:22;;;;;;;;;10.50;6.75;;;;;22.11;53.45;100727.31;5022613;28;45273;-73
2021/06/30 08:40:48;;;;;;;;;11.50;8.25;;;;;22.13;53.56;100731.63;5022348;28;45179;-74
2021/06/30 08:43:32;;;;;;;;;11.00;8.75;;;;;22.14;53.94;100724.53;5022278;28;45245;-73
2021/06/30 08:45:58;;;;;;;;;7.25;6.75;;;;;22.17;53.11;100729.75;5026507;28;45310;-72
2021/06/30 08:48:26;;;;;;;;;8.50;8.00;;;;;22.12;53.09;100713.97;5019883;28;45266;-73
2021/06/30 08:50:52;;;;;;;;;12.50;8.75;;;;;22.21;53.30;100731.34;5009422;28;45375;-74
2021/06/30 08:53:18;;;;;;;;;10.25;9.00;;;;;22.21;53.58;100720.72;5002853;28;45350;-71
2021/06/30 08:55:44;;;;;;;;;8.75;7.00;;;;;22.23;53.50;100729.47;4984403;28;46971;-76
2021/06/30 08:58:11;;;;;;;;;10.00;8.25;;;;;22.23;53.62;100710.88;4999930;28;45687;-73
2021/06/30 09:00:36;;;;;;;;;13.00;10.25;;;;;22.30;53.94;100717.69;4996346;28;45282;-73
2021/06/30 09:03:02;;;;;;;;;8.50;7.25;;;;;22.27;53.12;100716.03;5006234;28;45451;-71
2021/06/30 09:07:55;;;;;;;;;10.00;10.00;;;;;22.26;53.34;100718.75;5036586;28;45575;-71
2021/06/30 09:10:34;;;;;;;;;10.00;9.50;;;;;22.35;53.29;100723.69;5020692;28;46536;-71
2021/06/30 09:12:59;;;;;;;;;10.00;9.00;;;;;22.35;52.94;100720.19;5020275;28;46063;-72
2021/06/30 09:15:37;;;;;;;;;9.00;8.00;;;;;22.38;53.13;100723.56;5021804;28;45724;-71
2021/06/30 09:18:21;;;;;;;;;9.00;8.00;;;;;22.38;52.88;100720.91;5005370;28;46013;-71
2021/06/30 09:20:47;;;;;;;;;10.25;9.25;;;;;22.42;52.87;100727.00;5020445;28;45444;-72
2021/06/30 09:23:12;;;;;;;;;14.00;9.00;;;;;22.41;52.49;100720.78;5015320;28;45232;-74
2021/06/30 09:25:40;;;;;;;;;11.75;11.25;;;;;22.40;52.33;100719.03;5012747;28;66847;-71
2021/06/30 09:28:17;;;;;;;;;11.25;10.75;;;;;22.33;52.91;100709.59;5019784;28;45471;-71
2021/06/30 09:31:05;;;;;;;;;14.50;10.00;;;;;22.42;53.00;100721.66;5003166;28;45528;-73
2021/06/30 09:33:51;;;;;;;;;8.75;8.50;;;;;22.38;52.53;100722.69;5020109;28;45572;-73
2021/06/30 09:36:17;;;;;;;;;10.75;9.00;;;;;22.39;52.19;100735.06;5003590;28;45492;-73
2021/06/30 09:38:44;;;;;;;;;10.00;8.50;;;;;22.40;52.52;100736.78;5019861;28;45503;-73
2021/06/30 09:41:26;;;;;;;;;11.25;9.00;;;;;22.38;52.34;100733.34;5020413;28;45373;-72
2021/06/30 09:44:08;;;;;;;;;10.00;9.00;;;;;22.41;52.39;100731.41;5020152;28;45555;-72
2021/06/30 09:46:34;;;;;;;;;10.50;10.50;;;;;22.43;52.15;100737.56;5037115;28;46391;-72
2021/06/30 09:49:03;;;;;;;;;11.00;10.25;;;;;22.41;52.29;100742.06;5003000;28;45558;-78
2021/06/30 09:51:29;;;;;;;;;11.00;10.00;;;;;22.36;52.05;100737.84;5003436;28;45422;-72
2021/06/30 09:54:06;;;;;;;;;10.25;9.25;;;;;22.28;52.39;100725.72;5001518;28;45195;-72
2021/06/30 09:59:22;;;;;;;;;9.50;9.25;;;;;22.37;52.56;100745.78;5001241;28;45321;-72
2021/06/30 10:02:01;;;;;;;;;11.00;9.00;;;;;22.41;51.86;100746.50;4999671;28;45265;-71
2021/06/30 10:04:30;;;;;;;;;10.00;10.00;;;;;22.39;52.24;100743.91;5000209;28;45548;-72
2021/06/30 10:06:57;;;;;;;;;10.75;10.25;;;;;22.38;51.95;100725.38;5001383;28;46200;-74
2021/06/30 10:09:23;;;;;;;;;11.50;8.25;;;;;22.48;51.93;100748.00;4998472;28;45287;-72
2021/06/30 10:11:56;;;;;;;;;10.50;10.50;;;;;22.47;52.25;100744.47;5016317;28;50250;-73
2021/06/30 10:14:25;;;;;;;;;13.00;10.25;;;;;22.52;52.52;100761.13;4983289;28;45459;-75
2021/06/30 10:16:58;;;;;;;;;9.50;9.00;;;;;22.42;52.08;100745.59;4983302;28;47259;-78
2021/06/30 10:19:23;;;;;;;;;8.75;8.50;;;;;22.51;52.41;100763.84;4999490;28;45328;-71
2021/06/30 10:21:56;;;;;;;;;10.25;10.00;;;;;22.51;51.85;100755.88;5008610;28;45316;-72
2021/06/30 10:24:22;;;;;;;;;11.00;9.00;;;;;22.48;52.79;100762.16;5003803;28;46514;-72
2021/06/30 10:26:48;;;;;;;;;12.00;10.25;;;;;22.48;52.69;100753.31;5035860;28;45893;-72
2021/06/30 10:29:14;;;;;;;;;11.25;11.25;;;;;22.52;52.38;100757.59;5002249;28;46051;-70
2021/06/30 10:31:41;;;;;;;;;9.00;9.00;;;;;22.48;52.00;100743.53;5009690;28;45183;-71
2021/06/30 10:34:11;;;;;;;;;12.75;11.50;;;;;22.54;52.67;100745.97;4984009;28;45515;-71
2021/06/30 10:36:52;;;;;;;;;11.25;10.00;;;;;22.55;52.38;100755.69;4999428;28;46365;-71
2021/06/30 10:39:38;;;;;;;;;11.00;10.00;;;;;22.53;51.70;100746.91;5018275;28;45395;-71
2021/06/30 10:42:34;;;;;;;;;9.75;9.00;;;;;22.56;51.84;100752.09;5000247;28;45416;-71
2021/06/30 10:45:16;;;;;;;;;10.00;9.00;;;;;22.50;52.11;100746.13;5022298;28;45421;-71
2021/06/30 10:48:03;;;;;;;;;12.00;10.00;;;;;22.52;51.44;100745.16;4999427;28;45432;-73
2021/06/30 10:50:32;;;;;;;;;9.00;8.00;;;;;22.52;51.53;100745.16;4998757;28;45287;-72
2021/06/30 10:53:01;;;;;;;;;9.25;9.00;;;;;22.51;51.57;100754.09;5006861;28;45296;-72
2021/06/30 10:55:36;;;;;;;;;13.25;11.00;;;;;22.53;52.72;100748.69;5000450;28;45459;-71
2021/06/30 10:58:10;;;;;;;;;11.25;9.75;;;;;22.54;53.19;100745.97;5000068;28;45483;-71
2021/06/30 11:00:40;;;;;;;;;14.00;13.25;;;;;22.57;52.22;100750.28;5003305;28;45490;-70
2021/06/30 11:03:30;;;;;;;;;11.00;11.00;;;;;22.57;52.62;100748.50;4983218;28;45366;-70
2021/06/30 11:06:13;;;;;;;;;10.25;8.25;;;;;22.61;52.13;100756.38;4999260;28;45523;-71
2021/06/30 11:09:12;;;;;;;;;;;;;;;;;;;;;
2021/06/30 11:11:47;;;;;;;;;12.00;12.00;;;;;22.56;52.38;100757.41;5011838;28;71731;-72
2021/06/30 11:14:18;;;;;;;;;12.25;12.25;;;;;22.56;51.71;100745.91;5000155;28;45364;-72
2021/06/30 11:16:49;;;;;;;;;14.50;13.25;;;;;22.53;51.87;100743.38;4982998;28;45388;-71
2021/06/30 11:19:20;;;;;;;;;15.00;15.00;;;;;22.63;51.96;100762.50;4982251;28;48164;-70
2021/06/30 11:21:53;;;;;;;;;21.25;15.75;;;;;22.64;51.44;100761.56;5008024;28;45327;-72
2021/06/30 11:27:32;;;;;;;;;17.25;16.00;;;;;22.70;51.45;100770.16;4999725;28;45290;-70
2021/06/30 11:30:05;;;;;;;;;17.50;15.00;;;;;22.72;51.12;100762.13;4999596;28;45987;-70
2021/06/30 11:32:30;;;;;;;;;14.50;14.50;;;;;22.78;50.48;100764.53;5014432;28;45410;-71
2021/06/30 11:34:56;;;;;;;;;17.50;15.25;;;;;22.78;50.35;100757.41;5000114;28;45178;-72
2021/06/30 11:37:22;;;;;;;;;14.00;14.00;;;;;22.81;49.53;100759.06;4999803;28;45214;-72
2021/06/30 11:39:51;;;;;;;;;13.00;12.25;;;;;22.80;48.75;100754.69;5009737;28;45251;-72
2021/06/30 11:42:40;;;;;;;;;17.00;15.00;;;;;22.73;48.97;100747.88;5001211;28;45360;-72
2021/06/30 11:45:29;;;;;;;;;13.00;12.00;;;;;22.80;49.51;100766.19;5005315;28;45260;-73